sensor_id;sensor_type;location;lat;lon;timestamp;pressure;altitude;pressure_sealevel;temperature;humidity
83733;BME280;73710;49.968;8.338;2024-02-26T05:06:30;51632.09;;;-141.83;95.22
83733;BME280;73710;49.968;8.338;2024-02-26T05:08:55;51610.06;;;-141.83;94.32
83733;BME280;73710;49.968;8.338;2024-02-26T05:11:21;51588.00;;;-141.83;94.43
83733;BME280;73710;49.968;8.338;2024-02-26T05:13:47;51594.03;;;-141.83;94.79
83733;BME280;73710;49.968;8.338;2024-02-26T05:16:13;51608.06;;;-141.83;93.36
83733;BME280;73710;49.968;8.338;2024-02-26T05:18:38;51636.13;;;-141.83;92.63
83733;BME280;73710;49.968;8.338;2024-02-26T05:21:04;51610.06;;;-141.83;93.83
83733;BME280;73710;49.968;8.338;2024-02-26T05:23:29;51602.03;;;-141.83;95.02
83733;BME280;73710;49.968;8.338;2024-02-26T05:25:55;51606.06;;;-141.83;95.05
83733;BME280;73710;49.968;8.338;2024-02-26T05:28:20;51590.00;;;-141.83;94.35
83733;BME280;73710;49.968;8.338;2024-02-26T05:30:46;51606.06;;;-141.83;93.33
83733;BME280;73710;49.968;8.338;2024-02-26T05:33:11;51594.03;;;-141.83;93.92
83733;BME280;73710;49.968;8.338;2024-02-26T05:35:37;51636.13;;;-141.83;94.78
83733;BME280;73710;49.968;8.338;2024-02-26T05:38:03;51590.00;;;-141.83;95.25
83733;BME280;73710;49.968;8.338;2024-02-26T05:40:28;51620.06;;;-141.83;95.88
83733;BME280;73710;49.968;8.338;2024-02-26T05:42:55;51575.97;;;-141.83;96.61
83733;BME280;73710;49.968;8.338;2024-02-26T05:48:01;51598.03;;;-141.83;96.93
83733;BME280;73710;49.968;8.338;2024-02-26T05:50:26;51600.03;;;-141.83;97.23
83733;BME280;73710;49.968;8.338;2024-02-26T05:52:52;51634.09;;;-141.83;97.67
83733;BME280;73710;49.968;8.338;2024-02-26T05:55:17;51606.06;;;-141.83;97.71
83733;BME280;73710;49.968;8.338;2024-02-26T05:57:43;51600.03;;;-141.83;97.20
83733;BME280;73710;49.968;8.338;2024-02-26T06:00:08;51602.03;;;-141.83;96.12
83733;BME280;73710;49.968;8.338;2024-02-26T06:02:36;51624.09;;;-141.83;95.78
83733;BME280;73710;49.968;8.338;2024-02-26T06:05:02;51578.00;;;-141.83;96.31
83733;BME280;73710;49.968;8.338;2024-02-26T06:07:28;51610.06;;;-141.83;96.13
83733;BME280;73710;49.968;8.338;2024-02-26T06:09:53;51626.09;;;-141.83;96.33
83733;BME280;73710;49.968;8.338;2024-02-26T06:12:19;51610.06;;;-141.83;96.84
83733;BME280;73710;49.968;8.338;2024-02-26T06:14:44;51614.06;;;-141.83;96.19
83733;BME280;73710;49.968;8.338;2024-02-26T06:17:10;51624.09;;;-141.83;96.77
83733;BME280;73710;49.968;8.338;2024-02-26T06:19:35;51626.09;;;-141.83;96.58
83733;BME280;73710;49.968;8.338;2024-02-26T06:22:00;51612.06;;;-141.83;97.33
83733;BME280;73710;49.968;8.338;2024-02-26T06:24:26;51602.03;;;-141.83;97.56
83733;BME280;73710;49.968;8.338;2024-02-26T06:26:51;51610.06;;;-141.83;98.18
83733;BME280;73710;49.968;8.338;2024-02-26T06:29:17;51612.06;;;-141.83;98.25
83733;BME280;73710;49.968;8.338;2024-02-26T06:31:42;51642.13;;;-141.83;98.11
83733;BME280;73710;49.968;8.338;2024-02-26T06:34:08;51614.06;;;-141.83;98.68
83733;BME280;73710;49.968;8.338;2024-02-26T06:36:33;51622.09;;;-141.83;99.24
83733;BME280;73710;49.968;8.338;2024-02-26T06:39:00;51618.06;;;-141.83;99.22
83733;BME280;73710;49.968;8.338;2024-02-26T06:41:25;51650.16;;;-141.83;99.42
83733;BME280;73710;49.968;8.338;2024-02-26T06:43:53;51636.13;;;-141.83;99.09
83733;BME280;73710;49.968;8.338;2024-02-26T06:46:19;51575.97;;;-141.83;98.94
83733;BME280;73710;49.968;8.338;2024-02-26T06:48:44;51616.06;;;-141.83;98.73
83733;BME280;73710;49.968;8.338;2024-02-26T06:51:09;51626.09;;;-141.83;98.19
83733;BME280;73710;49.968;8.338;2024-02-26T06:53:35;51620.06;;;-141.83;97.70
83733;BME280;73710;49.968;8.338;2024-02-26T06:56:00;51594.03;;;-141.83;98.19
83733;BME280;73710;49.968;8.338;2024-02-26T06:58:25;51626.09;;;-141.83;98.49
83733;BME280;73710;49.968;8.338;2024-02-26T07:00:51;51626.09;;;-141.83;98.91
83733;BME280;73710;49.968;8.338;2024-02-26T07:03:16;51632.09;;;-141.83;98.33
83733;BME280;73710;49.968;8.338;2024-02-26T07:05:41;51622.09;;;-141.83;98.38
83733;BME280;73710;49.968;8.338;2024-02-26T07:08:07;51618.06;;;-141.83;98.20
83733;BME280;73710;49.968;8.338;2024-02-26T07:10:32;51638.13;;;-141.83;97.98
83733;BME280;73710;49.968;8.338;2024-02-26T07:12:58;51630.09;;;-141.83;98.17
83733;BME280;73710;49.968;8.338;2024-02-26T07:15:24;51586.00;;;-141.83;98.01
83733;BME280;73710;49.968;8.338;2024-02-26T07:17:49;51616.06;;;-141.83;97.96
83733;BME280;73710;49.968;8.338;2024-02-26T07:20:15;51618.06;;;-141.83;98.25
83733;BME280;73710;49.968;8.338;2024-02-26T07:22:40;51630.09;;;-141.83;98.04
83733;BME280;73710;49.968;8.338;2024-02-26T07:25:07;51618.06;;;-141.83;98.19
83733;BME280;73710;49.968;8.338;2024-02-26T07:27:34;51612.06;;;-141.83;96.91
83733;BME280;73710;49.968;8.338;2024-02-26T07:29:59;51614.06;;;-141.83;97.43
83733;BME280;73710;49.968;8.338;2024-02-26T07:32:24;51628.09;;;-141.83;97.20
83733;BME280;73710;49.968;8.338;2024-02-26T07:34:50;51618.06;;;-141.83;96.52
83733;BME280;73710;49.968;8.338;2024-02-26T07:37:15;51666.19;;;-141.83;97.08
83733;BME280;73710;49.968;8.338;2024-02-26T07:39:41;51636.13;;;-141.83;96.70
83733;BME280;73710;49.968;8.338;2024-02-26T07:42:06;51656.16;;;-141.83;96.44
83733;BME280;73710;49.968;8.338;2024-02-26T07:44:33;51614.06;;;-141.83;96.76
83733;BME280;73710;49.968;8.338;2024-02-26T07:46:58;51662.16;;;-141.83;96.40
83733;BME280;73710;49.968;8.338;2024-02-26T07:49:23;51634.09;;;-141.83;95.18
83733;BME280;73710;49.968;8.338;2024-02-26T07:51:49;51606.06;;;-141.83;95.52
83733;BME280;73710;49.968;8.338;2024-02-26T07:54:14;51604.03;;;-141.83;95.39
83733;BME280;73710;49.968;8.338;2024-02-26T07:56:41;51644.13;;;-141.83;95.10
83733;BME280;73710;49.968;8.338;2024-02-26T07:59:07;51654.16;;;-141.83;93.70
83733;BME280;73710;49.968;8.338;2024-02-26T08:01:32;51652.16;;;-141.83;93.30
83733;BME280;73710;49.968;8.338;2024-02-26T08:03:58;51648.13;;;-141.83;94.64
83733;BME280;73710;49.968;8.338;2024-02-26T08:06:24;51622.09;;;-141.83;95.22
83733;BME280;73710;49.968;8.338;2024-02-26T08:08:50;51646.13;;;-141.83;94.30
83733;BME280;73710;49.968;8.338;2024-02-26T08:11:16;51612.06;;;-141.83;94.19
83733;BME280;73710;49.968;8.338;2024-02-26T08:13:41;51670.19;;;-141.83;94.62
83733;BME280;73710;49.968;8.338;2024-02-26T08:16:06;51648.13;;;-141.83;94.84
83733;BME280;73710;49.968;8.338;2024-02-26T08:18:32;51646.13;;;-141.83;94.86
83733;BME280;73710;49.968;8.338;2024-02-26T08:20:57;51656.16;;;-141.83;94.34
83733;BME280;73710;49.968;8.338;2024-02-26T08:23:22;51640.13;;;-141.83;93.74
83733;BME280;73710;49.968;8.338;2024-02-26T08:25:49;51622.09;;;-141.83;93.74
83733;BME280;73710;49.968;8.338;2024-02-26T08:28:14;51654.16;;;-141.83;92.63
83733;BME280;73710;49.968;8.338;2024-02-26T08:30:39;51638.13;;;-141.83;92.32
83733;BME280;73710;49.968;8.338;2024-02-26T08:33:05;51642.13;;;-141.83;92.20
83733;BME280;73710;49.968;8.338;2024-02-26T08:35:30;51678.19;;;-141.83;92.54
83733;BME280;73710;49.968;8.338;2024-02-26T08:37:55;51646.13;;;-141.83;92.69
83733;BME280;73710;49.968;8.338;2024-02-26T08:40:21;51672.19;;;-141.83;91.75
83733;BME280;73710;49.968;8.338;2024-02-26T08:42:46;51652.16;;;-141.83;91.82
83733;BME280;73710;49.968;8.338;2024-02-26T08:45:12;51682.22;;;-141.83;91.38
83733;BME280;73710;49.968;8.338;2024-02-26T08:47:38;51662.16;;;-141.83;91.55
83733;BME280;73710;49.968;8.338;2024-02-26T08:50:04;51646.13;;;-141.83;90.88
83733;BME280;73710;49.968;8.338;2024-02-26T08:52:30;51630.09;;;-141.83;90.59
83733;BME280;73710;49.968;8.338;2024-02-26T08:54:55;51646.13;;;-141.83;91.45
83733;BME280;73710;49.968;8.338;2024-02-26T08:57:20;51664.19;;;-141.83;92.55
83733;BME280;73710;49.968;8.338;2024-02-26T08:59:46;51656.16;;;-141.83;92.65
83733;BME280;73710;49.968;8.338;2024-02-26T09:02:11;51662.16;;;-141.83;92.69
83733;BME280;73710;49.968;8.338;2024-02-26T09:04:36;51638.13;;;-141.83;92.83
83733;BME280;73710;49.968;8.338;2024-02-26T09:07:02;51666.19;;;-141.83;92.45
83733;BME280;73710;49.968;8.338;2024-02-26T09:09:28;51646.13;;;-141.83;92.63
83733;BME280;73710;49.968;8.338;2024-02-26T09:11:55;51666.19;;;-141.83;92.80
83733;BME280;73710;49.968;8.338;2024-02-26T09:14:21;51680.22;;;-141.83;91.77
83733;BME280;73710;49.968;8.338;2024-02-26T09:16:47;51644.13;;;-141.83;91.63
83733;BME280;73710;49.968;8.338;2024-02-26T09:19:14;51670.19;;;-141.83;90.00
83733;BME280;73710;49.968;8.338;2024-02-26T09:21:46;51660.16;;;-141.83;89.87
83733;BME280;73710;49.968;8.338;2024-02-26T09:24:12;51682.22;;;-141.83;88.23
83733;BME280;73710;49.968;8.338;2024-02-26T09:26:37;51694.25;;;-141.83;87.53
83733;BME280;73710;49.968;8.338;2024-02-26T09:29:03;51670.19;;;-141.83;85.30
83733;BME280;73710;49.968;8.338;2024-02-26T09:31:29;51670.19;;;-141.83;84.28
83733;BME280;73710;49.968;8.338;2024-02-26T09:33:55;51662.16;;;-141.83;83.18
83733;BME280;73710;49.968;8.338;2024-02-26T09:36:20;51662.16;;;-141.83;84.14
83733;BME280;73710;49.968;8.338;2024-02-26T09:38:46;51694.25;;;-141.83;84.18
83733;BME280;73710;49.968;8.338;2024-02-26T09:41:15;51654.16;;;-141.83;84.55
83733;BME280;73710;49.968;8.338;2024-02-26T09:43:44;51682.22;;;-141.83;82.77
83733;BME280;73710;49.968;8.338;2024-02-26T09:46:10;51686.22;;;-141.83;84.12
83733;BME280;73710;49.968;8.338;2024-02-26T09:48:37;51650.16;;;-141.83;84.26
83733;BME280;73710;49.968;8.338;2024-02-26T09:51:03;51708.28;;;-141.83;83.79
83733;BME280;73710;49.968;8.338;2024-02-26T09:53:29;51696.25;;;-141.83;81.52
83733;BME280;73710;49.968;8.338;2024-02-26T09:55:57;51682.22;;;-141.83;80.23
83733;BME280;73710;49.968;8.338;2024-02-26T09:58:24;51684.22;;;-141.83;78.82
83733;BME280;73710;49.968;8.338;2024-02-26T10:00:53;51728.31;;;-141.83;77.81
83733;BME280;73710;49.968;8.338;2024-02-26T10:03:22;51726.31;;;-141.83;80.49
83733;BME280;73710;49.968;8.338;2024-02-26T10:05:50;51702.25;;;-141.83;80.06
83733;BME280;73710;49.968;8.338;2024-02-26T10:08:16;51710.28;;;-141.83;79.82
83733;BME280;73710;49.968;8.338;2024-02-26T10:10:44;51704.25;;;-141.83;79.29
83733;BME280;73710;49.968;8.338;2024-02-26T10:13:10;51684.22;;;-141.83;79.19
83733;BME280;73710;49.968;8.338;2024-02-26T10:15:37;51714.28;;;-141.83;77.03
83733;BME280;73710;49.968;8.338;2024-02-26T10:18:06;51714.28;;;-141.83;76.82
83733;BME280;73710;49.968;8.338;2024-02-26T10:20:31;51680.22;;;-141.83;76.07
83733;BME280;73710;49.968;8.338;2024-02-26T10:22:57;51698.25;;;-141.83;74.46
83733;BME280;73710;49.968;8.338;2024-02-26T10:25:22;51694.25;;;-141.83;77.23
83733;BME280;73710;49.968;8.338;2024-02-26T10:27:48;51714.28;;;-141.83;77.91
83733;BME280;73710;49.968;8.338;2024-02-26T10:30:20;51702.25;;;-141.83;76.24
83733;BME280;73710;49.968;8.338;2024-02-26T10:32:48;51712.28;;;-141.83;77.42
83733;BME280;73710;49.968;8.338;2024-02-26T10:35:15;51702.25;;;-141.83;74.31
83733;BME280;73710;49.968;8.338;2024-02-26T10:37:41;51698.25;;;-141.83;74.71
83733;BME280;73710;49.968;8.338;2024-02-26T10:40:10;51708.28;;;-141.83;73.82
83733;BME280;73710;49.968;8.338;2024-02-26T10:42:36;51714.28;;;-141.83;73.69
83733;BME280;73710;49.968;8.338;2024-02-26T10:45:01;51668.19;;;-141.83;74.80
83733;BME280;73710;49.968;8.338;2024-02-26T10:47:28;51726.31;;;-141.83;75.39
83733;BME280;73710;49.968;8.338;2024-02-26T10:49:54;51714.28;;;-141.83;75.62
83733;BME280;73710;49.968;8.338;2024-02-26T10:52:22;51740.34;;;-141.83;75.25
83733;BME280;73710;49.968;8.338;2024-02-26T10:54:53;51674.19;;;-141.83;75.80
83733;BME280;73710;49.968;8.338;2024-02-26T10:57:19;51698.25;;;-141.83;76.10
83733;BME280;73710;49.968;8.338;2024-02-26T10:59:47;51708.28;;;-141.83;76.21
83733;BME280;73710;49.968;8.338;2024-02-26T11:02:13;51704.25;;;-141.83;74.96
83733;BME280;73710;49.968;8.338;2024-02-26T11:04:39;51702.25;;;-141.83;75.00
83733;BME280;73710;49.968;8.338;2024-02-26T11:07:05;51708.28;;;-141.83;74.07
83733;BME280;73710;49.968;8.338;2024-02-26T11:09:31;51706.25;;;-141.83;72.59
83733;BME280;73710;49.968;8.338;2024-02-26T11:11:58;51710.28;;;-141.83;72.62
83733;BME280;73710;49.968;8.338;2024-02-26T11:14:25;51722.31;;;-141.83;73.65
83733;BME280;73710;49.968;8.338;2024-02-26T11:16:51;51730.31;;;-141.83;72.12
83733;BME280;73710;49.968;8.338;2024-02-26T11:19:17;51732.31;;;-141.83;71.42
83733;BME280;73710;49.968;8.338;2024-02-26T11:21:43;51716.28;;;-141.83;71.42
83733;BME280;73710;49.968;8.338;2024-02-26T11:24:12;51730.31;;;-141.83;72.66
83733;BME280;73710;49.968;8.338;2024-02-26T11:26:42;51720.28;;;-141.83;72.70
83733;BME280;73710;49.968;8.338;2024-02-26T11:29:11;51798.47;;;-141.83;72.39
83733;BME280;73710;49.968;8.338;2024-02-26T11:31:38;51730.31;;;-141.83;72.65
83733;BME280;73710;49.968;8.338;2024-02-26T11:34:07;51706.25;;;-141.83;70.21
83733;BME280;73710;49.968;8.338;2024-02-26T11:36:32;51742.34;;;-141.83;70.31
83733;BME280;73710;49.968;8.338;2024-02-26T11:38:58;51720.28;;;-141.83;71.01
83733;BME280;73710;49.968;8.338;2024-02-26T11:41:23;51710.28;;;-141.83;70.46
83733;BME280;73710;49.968;8.338;2024-02-26T11:43:50;51742.34;;;-141.83;69.28
83733;BME280;73710;49.968;8.338;2024-02-26T11:48:53;51740.34;;;-141.83;67.82
83733;BME280;73710;49.968;8.338;2024-02-26T11:51:25;51750.38;;;-141.83;66.37
83733;BME280;73710;49.968;8.338;2024-02-26T11:53:50;51752.38;;;-141.83;66.93
83733;BME280;73710;49.968;8.338;2024-02-26T11:59:09;51740.34;;;-141.83;65.74
83733;BME280;73710;49.968;8.338;2024-02-26T12:01:48;51752.38;;;-141.83;66.08
83733;BME280;73710;49.968;8.338;2024-02-26T12:04:16;51754.38;;;-141.83;65.77
83733;BME280;73710;49.968;8.338;2024-02-26T12:06:55;51774.41;;;-141.83;66.07
83733;BME280;73710;49.968;8.338;2024-02-26T12:12:01;51734.31;;;-141.83;67.31
83733;BME280;73710;49.968;8.338;2024-02-26T12:14:27;51744.34;;;-141.83;68.70
83733;BME280;73710;49.968;8.338;2024-02-26T12:16:52;51730.31;;;-141.83;68.02
83733;BME280;73710;49.968;8.338;2024-02-26T12:19:18;51778.41;;;-141.83;68.37
83733;BME280;73710;49.968;8.338;2024-02-26T12:21:43;51738.34;;;-141.83;68.40
83733;BME280;73710;49.968;8.338;2024-02-26T12:24:13;51746.34;;;-141.83;69.84
83733;BME280;73710;49.968;8.338;2024-02-26T12:26:40;51730.31;;;-141.83;68.85
83733;BME280;73710;49.968;8.338;2024-02-26T12:29:06;51706.25;;;-141.83;68.43
83733;BME280;73710;49.968;8.338;2024-02-26T12:31:34;51736.34;;;-141.83;69.86
83733;BME280;73710;49.968;8.338;2024-02-26T12:34:02;51742.34;;;-141.83;67.84
83733;BME280;73710;49.968;8.338;2024-02-26T12:36:27;51746.34;;;-141.83;66.15
83733;BME280;73710;49.968;8.338;2024-02-26T12:38:53;51758.38;;;-141.83;65.97
83733;BME280;73710;49.968;8.338;2024-02-26T12:41:18;51768.41;;;-141.83;65.19
83733;BME280;73710;49.968;8.338;2024-02-26T12:43:44;51762.38;;;-141.83;64.55
83733;BME280;73710;49.968;8.338;2024-02-26T12:46:11;51766.41;;;-141.83;63.49
83733;BME280;73710;49.968;8.338;2024-02-26T12:48:38;51770.41;;;-141.83;61.87
83733;BME280;73710;49.968;8.338;2024-02-26T12:51:04;51762.38;;;-141.83;62.00
83733;BME280;73710;49.968;8.338;2024-02-26T12:53:30;51758.38;;;-141.83;62.39
83733;BME280;73710;49.968;8.338;2024-02-26T12:55:56;51742.34;;;-141.83;62.24
83733;BME280;73710;49.968;8.338;2024-02-26T12:58:21;51762.38;;;-141.83;62.59
83733;BME280;73710;49.968;8.338;2024-02-26T13:00:55;51760.38;;;-141.83;61.43
83733;BME280;73710;49.968;8.338;2024-02-26T13:03:22;51784.44;;;-141.83;61.17
83733;BME280;73710;49.968;8.338;2024-02-26T13:05:48;51786.44;;;-141.83;61.51
83733;BME280;73710;49.968;8.338;2024-02-26T13:08:18;51750.38;;;-141.83;62.73
83733;BME280;73710;49.968;8.338;2024-02-26T13:10:45;51758.38;;;-141.83;62.35
83733;BME280;73710;49.968;8.338;2024-02-26T13:13:11;51736.34;;;-141.83;62.57
83733;BME280;73710;49.968;8.338;2024-02-26T13:15:39;51726.31;;;-141.83;61.88
83733;BME280;73710;49.968;8.338;2024-02-26T13:18:12;51782.44;;;-141.83;60.71
83733;BME280;73710;49.968;8.338;2024-02-26T13:20:37;51774.41;;;-141.83;62.80
83733;BME280;73710;49.968;8.338;2024-02-26T13:23:07;51804.47;;;-141.83;63.75
83733;BME280;73710;49.968;8.338;2024-02-26T13:25:33;51766.41;;;-141.83;61.51
83733;BME280;73710;49.968;8.338;2024-02-26T13:28:09;51802.47;;;-141.83;61.29
83733;BME280;73710;49.968;8.338;2024-02-26T13:30:37;51810.50;;;-141.83;57.88
83733;BME280;73710;49.968;8.338;2024-02-26T13:33:12;51806.47;;;-141.83;58.00
83733;BME280;73710;49.968;8.338;2024-02-26T13:35:38;51834.53;;;-141.83;58.00
83733;BME280;73710;49.968;8.338;2024-02-26T13:38:05;51782.44;;;-141.83;58.09
83733;BME280;73710;49.968;8.338;2024-02-26T13:40:31;51792.44;;;-141.83;57.56
83733;BME280;73710;49.968;8.338;2024-02-26T13:42:56;51760.38;;;-141.83;57.09
83733;BME280;73710;49.968;8.338;2024-02-26T13:45:22;51794.47;;;-141.83;58.48
83733;BME280;73710;49.968;8.338;2024-02-26T13:47:47;51758.38;;;-141.83;59.48
83733;BME280;73710;49.968;8.338;2024-02-26T13:50:12;51752.38;;;-141.83;59.06
83733;BME280;73710;49.968;8.338;2024-02-26T13:52:38;51734.31;;;-141.83;59.31
83733;BME280;73710;49.968;8.338;2024-02-26T13:55:04;51768.41;;;-141.83;61.03
83733;BME280;73710;49.968;8.338;2024-02-26T13:57:29;51770.41;;;-141.83;62.02
83733;BME280;73710;49.968;8.338;2024-02-26T13:59:55;51750.38;;;-141.83;60.75
83733;BME280;73710;49.968;8.338;2024-02-26T14:02:20;51738.34;;;-141.83;61.15
83733;BME280;73710;49.968;8.338;2024-02-26T14:04:46;51796.47;;;-141.83;61.52
83733;BME280;73710;49.968;8.338;2024-02-26T14:07:12;51758.38;;;-141.83;62.18
83733;BME280;73710;49.968;8.338;2024-02-26T14:09:37;51730.31;;;-141.83;61.48
83733;BME280;73710;49.968;8.338;2024-02-26T14:12:03;51716.28;;;-141.83;62.36
83733;BME280;73710;49.968;8.338;2024-02-26T14:14:29;51730.31;;;-141.83;62.62
83733;BME280;73710;49.968;8.338;2024-02-26T14:16:58;51774.41;;;-141.83;63.86
83733;BME280;73710;49.968;8.338;2024-02-26T14:19:23;51758.38;;;-141.83;63.94
83733;BME280;73710;49.968;8.338;2024-02-26T14:21:48;51754.38;;;-141.83;64.77
83733;BME280;73710;49.968;8.338;2024-02-26T14:24:14;51726.31;;;-141.83;64.64
83733;BME280;73710;49.968;8.338;2024-02-26T14:26:40;51730.31;;;-141.83;65.87
83733;BME280;73710;49.968;8.338;2024-02-26T14:29:05;51714.28;;;-141.83;65.39
83733;BME280;73710;49.968;8.338;2024-02-26T14:31:32;51742.34;;;-141.83;64.49
83733;BME280;73710;49.968;8.338;2024-02-26T14:33:57;51746.34;;;-141.83;65.19
83733;BME280;73710;49.968;8.338;2024-02-26T14:36:23;51746.34;;;-141.83;65.51
83733;BME280;73710;49.968;8.338;2024-02-26T14:38:48;51732.31;;;-141.83;65.82
83733;BME280;73710;49.968;8.338;2024-02-26T14:41:14;51730.31;;;-141.83;65.44
83733;BME280;73710;49.968;8.338;2024-02-26T14:43:39;51742.34;;;-141.83;65.42
83733;BME280;73710;49.968;8.338;2024-02-26T14:46:05;51710.28;;;-141.83;65.92
83733;BME280;73710;49.968;8.338;2024-02-26T14:48:30;51718.28;;;-141.83;65.96
83733;BME280;73710;49.968;8.338;2024-02-26T14:50:57;51714.28;;;-141.83;64.77
83733;BME280;73710;49.968;8.338;2024-02-26T14:53:22;51738.34;;;-141.83;64.50
83733;BME280;73710;49.968;8.338;2024-02-26T14:55:48;51742.34;;;-141.83;64.33
83733;BME280;73710;49.968;8.338;2024-02-26T14:58:13;51724.31;;;-141.83;64.53
83733;BME280;73710;49.968;8.338;2024-02-26T15:00:39;51748.34;;;-141.83;64.48
83733;BME280;73710;49.968;8.338;2024-02-26T15:03:04;51736.34;;;-141.83;65.26
83733;BME280;73710;49.968;8.338;2024-02-26T15:05:31;51766.41;;;-141.83;65.66
83733;BME280;73710;49.968;8.338;2024-02-26T15:07:56;51720.28;;;-141.83;64.50
83733;BME280;73710;49.968;8.338;2024-02-26T15:10:22;51732.31;;;-141.83;65.88
83733;BME280;73710;49.968;8.338;2024-02-26T15:12:47;51754.38;;;-141.83;65.58
83733;BME280;73710;49.968;8.338;2024-02-26T15:15:13;51736.34;;;-141.83;64.99
83733;BME280;73710;49.968;8.338;2024-02-26T15:17:38;51722.31;;;-141.83;65.82
83733;BME280;73710;49.968;8.338;2024-02-26T15:20:04;51736.34;;;-141.83;64.90
83733;BME280;73710;49.968;8.338;2024-02-26T15:22:33;51754.38;;;-141.83;64.92
83733;BME280;73710;49.968;8.338;2024-02-26T15:24:58;51754.38;;;-141.83;63.66
83733;BME280;73710;49.968;8.338;2024-02-26T15:27:23;51738.34;;;-141.83;64.14
83733;BME280;73710;49.968;8.338;2024-02-26T15:29:49;51734.31;;;-141.83;63.41
83733;BME280;73710;49.968;8.338;2024-02-26T15:32:21;51762.38;;;-141.83;64.28
83733;BME280;73710;49.968;8.338;2024-02-26T15:34:46;51744.34;;;-141.83;64.27
83733;BME280;73710;49.968;8.338;2024-02-26T15:37:12;51722.31;;;-141.83;64.52
83733;BME280;73710;49.968;8.338;2024-02-26T15:39:37;51738.34;;;-141.83;64.82
83733;BME280;73710;49.968;8.338;2024-02-26T15:42:02;51714.28;;;-141.83;64.74
83733;BME280;73710;49.968;8.338;2024-02-26T15:44:28;51744.34;;;-141.83;66.24
83733;BME280;73710;49.968;8.338;2024-02-26T15:46:53;51756.38;;;-141.83;65.52
83733;BME280;73710;49.968;8.338;2024-02-26T15:49:18;51744.34;;;-141.83;66.09
83733;BME280;73710;49.968;8.338;2024-02-26T15:51:44;51770.41;;;-141.83;65.72
83733;BME280;73710;49.968;8.338;2024-02-26T15:54:10;51734.31;;;-141.83;66.18
83733;BME280;73710;49.968;8.338;2024-02-26T15:56:35;51716.28;;;-141.83;66.23
83733;BME280;73710;49.968;8.338;2024-02-26T15:59:01;51734.31;;;-141.83;65.44
83733;BME280;73710;49.968;8.338;2024-02-26T16:01:27;51750.38;;;-141.83;66.58
83733;BME280;73710;49.968;8.338;2024-02-26T16:03:53;51742.34;;;-141.83;66.50
83733;BME280;73710;49.968;8.338;2024-02-26T16:06:29;51706.25;;;-141.83;66.87
83733;BME280;73710;49.968;8.338;2024-02-26T16:08:55;51714.28;;;-141.83;66.48
83733;BME280;73710;49.968;8.338;2024-02-26T16:11:20;51738.34;;;-141.83;66.55
83733;BME280;73710;49.968;8.338;2024-02-26T16:13:46;51728.31;;;-141.83;66.80
83733;BME280;73710;49.968;8.338;2024-02-26T16:16:17;51718.28;;;-141.83;66.64
83733;BME280;73710;49.968;8.338;2024-02-26T16:18:44;51718.28;;;-141.83;67.31
83733;BME280;73710;49.968;8.338;2024-02-26T16:21:09;51692.22;;;-141.83;67.83
83733;BME280;73710;49.968;8.338;2024-02-26T16:23:35;51758.38;;;-141.83;67.74
83733;BME280;73710;49.968;8.338;2024-02-26T16:26:01;51726.31;;;-141.83;68.28
83733;BME280;73710;49.968;8.338;2024-02-26T16:28:26;51734.31;;;-141.83;68.71
83733;BME280;73710;49.968;8.338;2024-02-26T16:30:52;51750.38;;;-141.83;69.34
83733;BME280;73710;49.968;8.338;2024-02-26T16:33:18;51722.31;;;-141.83;69.39
83733;BME280;73710;49.968;8.338;2024-02-26T16:35:43;51728.31;;;-141.83;68.71
83733;BME280;73710;49.968;8.338;2024-02-26T16:38:09;51718.28;;;-141.83;69.59
83733;BME280;73710;49.968;8.338;2024-02-26T16:40:34;51718.28;;;-141.83;69.28
83733;BME280;73710;49.968;8.338;2024-02-26T16:43:01;51744.34;;;-141.83;69.52
83733;BME280;73710;49.968;8.338;2024-02-26T16:45:27;51718.28;;;-141.83;69.98
83733;BME280;73710;49.968;8.338;2024-02-26T16:47:54;51688.22;;;-141.83;70.57
83733;BME280;73710;49.968;8.338;2024-02-26T16:50:19;51746.34;;;-141.83;70.82
83733;BME280;73710;49.968;8.338;2024-02-26T16:52:45;51716.28;;;-141.83;71.46
83733;BME280;73710;49.968;8.338;2024-02-26T16:55:10;51698.25;;;-141.83;71.78
83733;BME280;73710;49.968;8.338;2024-02-26T16:57:38;51716.28;;;-141.83;72.26
83733;BME280;73710;49.968;8.338;2024-02-26T17:00:06;51706.25;;;-141.83;72.51
83733;BME280;73710;49.968;8.338;2024-02-26T17:02:33;51676.19;;;-141.83;73.16
83733;BME280;73710;49.968;8.338;2024-02-26T17:04:58;51710.28;;;-141.83;72.73
83733;BME280;73710;49.968;8.338;2024-02-26T17:07:24;51704.25;;;-141.83;72.44
83733;BME280;73710;49.968;8.338;2024-02-26T17:09:49;51722.31;;;-141.83;72.04
83733;BME280;73710;49.968;8.338;2024-02-26T17:12:15;51694.25;;;-141.83;72.27
83733;BME280;73710;49.968;8.338;2024-02-26T17:14:41;51694.25;;;-141.83;72.37
83733;BME280;73710;49.968;8.338;2024-02-26T17:17:08;51700.25;;;-141.83;72.46
83733;BME280;73710;49.968;8.338;2024-02-26T17:19:34;51706.25;;;-141.83;72.45
83733;BME280;73710;49.968;8.338;2024-02-26T17:22:00;51674.19;;;-141.83;72.67
83733;BME280;73710;49.968;8.338;2024-02-26T17:24:25;51714.28;;;-141.83;72.66
83733;BME280;73710;49.968;8.338;2024-02-26T17:26:50;51722.31;;;-141.83;72.72
83733;BME280;73710;49.968;8.338;2024-02-26T17:29:16;51664.19;;;-141.83;72.75
83733;BME280;73710;49.968;8.338;2024-02-26T17:31:41;51694.25;;;-141.83;73.01
83733;BME280;73710;49.968;8.338;2024-02-26T17:34:08;51708.28;;;-141.83;73.42
83733;BME280;73710;49.968;8.338;2024-02-26T17:36:35;51714.28;;;-141.83;73.60
83733;BME280;73710;49.968;8.338;2024-02-26T17:39:01;51708.28;;;-141.83;73.84
83733;BME280;73710;49.968;8.338;2024-02-26T17:41:26;51706.25;;;-141.83;73.54
83733;BME280;73710;49.968;8.338;2024-02-26T17:43:52;51724.31;;;-141.83;74.01
83733;BME280;73710;49.968;8.338;2024-02-26T17:46:18;51720.28;;;-141.83;74.25
83733;BME280;73710;49.968;8.338;2024-02-26T17:48:43;51708.28;;;-141.83;74.47
83733;BME280;73710;49.968;8.338;2024-02-26T17:51:09;51734.31;;;-141.83;74.28